Rawmarsh, United Kingdom
Current Conditions -  °F | °C
As of 7:50 AM on Wednesday 26 Nov 2014 (Local Time) from EGCN Reporting Station
Light Rain Light Rain  
Wind Chill:   Ceiling: 2600
Heat Index:   Visibility: 4mi
Dew Point:   Wind: 5mph
Humidity: 93%   Direction: 40°NE
Pressure: 29.97"   Gusts: NA
Location:  53.46°N, 1.34°W
Report Text: EGCN 260750Z 04004KT 7000 -RA FEW018 BKN026 08/07 Q1015
Loading
Personal Weather Stations






























Interactive Weather Map New forecast layout! Learn more

10-Day Weather Forecast

Advertisements
Track Severe Weather on mobile